CheckWX is a tool to help pilots better visualize weather data.  It is not intended as a substitute for an official pre-flight weather briefing.

05:20:39 UTC

KUES TAF
Waukesha County Airport
Waukesha, Wisconsin, USA
KUES 190250Z 1903/1924 28020G31KT 6SM BLSN OVC020 FM190600 28018G28KT P6SM BKN021 FM191200 29012G22KT P6SM BKN023 FM192200 31011KT P6SM BKN035

Jan-19@
03:00 UTC

Jan-19 @ 03:00 UTC

Jan-19@
06:00 UTC

Jan-19 @ 06:00 UTC

KUES 190250Z 1903/1924 28020G31KT 6SM BLSN OVC020
Wind
  • 280° at 20 KTS
  • {Gusting to 31 KTS
Conditions
Blowing Snow
Cloud Levels
  • Overcast at 2,000' AGL

Jan-19@
06:00 UTC

Jan-19 @ 06:00 UTC

Jan-19@
12:00 UTC

Jan-19 @ 12:00 UTC

FM190600 28018G28KT P6SM BKN021

From

From Standard forecast or significant change

Wind
  • 280° at 18 KTS
  • {Gusting to 28 KTS
Cloud Levels
  • Broken at 2,100' AGL

Jan-19@
12:00 UTC

Jan-19 @ 12:00 UTC

Jan-19@
22:00 UTC

Jan-19 @ 22:00 UTC

FM191200 29012G22KT P6SM BKN023

From

From Standard forecast or significant change

Wind
  • 290° at 12 KTS
  • {Gusting to 22 KTS
Cloud Levels
  • Broken at 2,300' AGL

Jan-19@
22:00 UTC

Jan-19 @ 22:00 UTC

Jan-20@
00:00 UTC

Jan-20 @ 00:00 UTC

FM192200 31011KT P6SM BKN035

From

From Standard forecast or significant change

Wind
  • 310° at 11 KTS
Cloud Levels
  • Broken at 3,500' AGL